Time;durP1;ratioP1;P1;durP2;ratioP2;P2;SDS_P1;SDS_P2;PMS_P1;PMS_P2;Temp;Humidity;BMP_temperature;BMP_pressure;BME280_temperature;BME280_humidity;BME280_pressure;Samples;Min_cycle;Max_cycle;Signal;HPM_P1;HPM_P2
2022/03/15 00:00:10;;;;;;;2.62;2.42;;;4.50;99.90;;;;;;468501;253;28053;-69
2022/03/15 00:02:12;;;;;;;2.83;2.53;;;4.60;99.90;;;;;;468513;253;27987;-69
2022/03/15 00:04:12;;;;;;;3.00;2.80;;;4.70;99.90;;;;;;468482;253;28006;-69
2022/03/15 00:06:13;;;;;;;2.70;2.50;;;4.70;99.90;;;;;;468510;253;27606;-69
2022/03/15 00:08:15;;;;;;;2.90;2.70;;;4.80;99.90;;;;;;468478;253;27641;-70
2022/03/15 00:10:16;;;;;;;2.92;2.72;;;4.80;99.90;;;;;;468502;253;27519;-69
2022/03/15 00:12:17;;;;;;;2.65;2.45;;;4.80;99.90;;;;;;468508;253;27595;-69
2022/03/15 00:14:19;;;;;;;2.70;2.50;;;4.90;99.90;;;;;;468502;253;27551;-69
2022/03/15 00:16:20;;;;;;;3.15;2.40;;;4.90;99.90;;;;;;468512;253;27510;-69
2022/03/15 00:18:21;;;;;;;2.08;1.98;;;4.90;99.90;;;;;;468494;253;28049;-69
2022/03/15 00:20:23;;;;;;;4.85;2.95;;;5.00;99.90;;;;;;468502;253;27977;-69
2022/03/15 00:22:24;;;;;;;3.80;2.35;;;5.00;99.90;;;;;;468542;253;27641;-69
2022/03/15 00:24:25;;;;;;;2.00;1.90;;;5.10;99.90;;;;;;468527;253;27554;-70
2022/03/15 00:26:28;;;;;;;2.58;2.40;;;5.20;99.90;;;;;;467549;253;27539;-69
2022/03/15 00:28:29;;;;;;;2.45;2.25;;;5.20;99.90;;;;;;466859;254;27491;-69
2022/03/15 00:30:29;;;;;;;2.47;2.30;;;5.30;99.90;;;;;;466812;252;27554;-69
2022/03/15 00:32:30;;;;;;;2.35;2.15;;;5.30;99.90;;;;;;466345;255;27441;-69
2022/03/15 00:34:31;;;;;;;2.95;2.30;;;5.30;99.90;;;;;;466676;254;27952;-69
2022/03/15 00:36:35;;;;;;;2.40;2.20;;;5.30;99.90;;;;;;466741;255;27919;-69
2022/03/15 00:38:34;;;;;;;2.50;2.30;;;5.40;99.90;;;;;;466668;255;27508;-69
2022/03/15 00:40:35;;;;;;;2.50;2.30;;;5.40;99.90;;;;;;466988;254;27486;-69
2022/03/15 00:42:36;;;;;;;2.47;2.28;;;5.40;99.90;;;;;;466952;254;27571;-69
2022/03/15 00:44:37;;;;;;;2.72;2.53;;;5.40;99.90;;;;;;466921;254;27605;-69
2022/03/15 00:46:39;;;;;;;3.70;2.62;;;5.30;99.90;;;;;;466921;254;27513;-69
2022/03/15 00:48:40;;;;;;;3.15;2.40;;;5.30;99.90;;;;;;466921;254;27557;-70
2022/03/15 00:50:41;;;;;;;5.00;2.80;;;5.30;99.90;;;;;;466960;254;28417;-69
2022/03/15 00:52:42;;;;;;;2.70;2.50;;;5.40;99.90;;;;;;466945;254;27916;-69
2022/03/15 00:54:44;;;;;;;2.67;2.47;;;5.50;99.90;;;;;;466886;254;27560;-70
2022/03/15 00:56:45;;;;;;;2.70;2.50;;;5.60;99.90;;;;;;466912;254;27441;-69
2022/03/15 00:58:46;;;;;;;3.70;2.33;;;5.80;99.90;;;;;;466909;255;27549;-69
2022/03/15 01:00:48;;;;;;;2.95;2.40;;;5.80;99.90;;;;;;466937;254;27488;-69
2022/03/15 01:02:49;;;;;;;4.75;2.40;;;5.80;99.90;;;;;;466701;255;27445;-69
2022/03/15 01:04:50;;;;;;;2.65;2.47;;;5.80;99.90;;;;;;466862;255;27476;-69
2022/03/15 01:06:51;;;;;;;2.22;2.08;;;5.70;99.90;;;;;;466939;254;27901;-70
2022/03/15 01:08:52;;;;;;;2.97;2.12;;;5.60;99.90;;;;;;466945;251;27943;-69
2022/03/15 01:10:54;;;;;;;2.47;2.30;;;5.50;99.90;;;;;;466934;255;27436;-69
2022/03/15 01:12:56;;;;;;;2.62;2.42;;;5.50;99.90;;;;;;466955;254;27513;-69
2022/03/15 01:14:57;;;;;;;2.60;2.50;;;5.50;99.90;;;;;;466952;254;27504;-69
2022/03/15 01:16:58;;;;;;;3.12;2.60;;;5.60;99.90;;;;;;466942;254;28027;-70
2022/03/15 01:19:00;;;;;;;4.75;2.60;;;5.80;99.90;;;;;;466946;254;27977;-69
2022/03/15 01:21:01;;;;;;;3.30;2.37;;;6.00;99.90;;;;;;466887;254;27520;-69
2022/03/15 01:23:02;;;;;;;3.05;2.40;;;6.00;99.90;;;;;;466962;252;27560;-69
2022/03/15 01:25:03;;;;;;;3.30;2.50;;;6.00;99.90;;;;;;466927;254;27444;-69
2022/03/15 01:27:05;;;;;;;2.67;2.25;;;6.30;99.90;;;;;;466918;254;27512;-70
2022/03/15 01:29:06;;;;;;;2.65;2.10;;;6.40;99.90;;;;;;466921;255;27529;-69
2022/03/15 01:31:07;;;;;;;2.95;2.25;;;6.30;99.90;;;;;;466904;254;27488;-69
2022/03/15 01:33:08;;;;;;;3.50;2.22;;;6.30;99.90;;;;;;466966;255;28057;-69
2022/03/15 01:35:10;;;;;;;4.55;2.33;;;6.20;99.90;;;;;;466913;255;27998;-69
2022/03/15 01:37:14;;;;;;;2.00;1.90;;;6.30;99.90;;;;;;466941;254;27485;-69
2022/03/15 01:39:12;;;;;;;2.30;2.10;;;6.40;99.90;;;;;;466624;255;27509;-69
2022/03/15 01:41:13;;;;;;;3.22;2.75;;;6.40;99.90;;;;;;466924;254;27492;-69
2022/03/15 01:43:15;;;;;;;2.20;2.10;;;6.50;99.90;;;;;;466953;254;27495;-69
2022/03/15 01:45:16;;;;;;;4.80;2.20;;;6.60;99.90;;;;;;477015;247;27490;-69
2022/03/15 01:47:17;;;;;;;3.05;2.30;;;6.60;99.90;;;;;;485054;244;28025;-69
2022/03/15 01:49:18;;;;;;;2.30;2.10;;;6.60;99.90;;;;;;477864;249;28352;-69
2022/03/15 01:51:21;;;;;;;2.05;1.95;;;6.50;99.90;;;;;;485017;245;27411;-69
2022/03/15 01:53:21;;;;;;;1.90;1.80;;;6.50;99.90;;;;;;477958;249;27503;-69
2022/03/15 01:55:22;;;;;;;1.90;1.80;;;6.50;99.90;;;;;;485034;245;27383;-69
2022/03/15 01:57:24;;;;;;;2.37;2.17;;;6.50;99.90;;;;;;478016;244;27512;-69
2022/03/15 01:59:26;;;;;;;2.00;1.90;;;6.50;99.90;;;;;;484975;245;28702;-69
2022/03/15 02:01:26;;;;;;;2.20;2.00;;;6.60;99.90;;;;;;478008;249;27950;-69
2022/03/15 02:03:27;;;;;;;2.05;1.83;;;6.50;99.90;;;;;;485062;245;29239;-69
2022/03/15 02:05:29;;;;;;;1.70;1.60;;;6.20;99.90;;;;;;478040;249;27468;-70
2022/03/15 02:07:30;;;;;;;2.20;1.80;;;6.20;99.90;;;;;;485076;245;27482;-69
2022/03/15 02:09:31;;;;;;;2.15;1.95;;;6.20;99.90;;;;;;478022;249;28794;-69
2022/03/15 02:11:35;;;;;;;2.80;2.58;;;6.20;99.90;;;;;;484910;241;27471;-69
2022/03/15 02:13:34;;;;;;;1.93;1.83;;;6.40;99.90;;;;;;484650;245;27393;-69
2022/03/15 02:15:35;;;;;;;3.65;2.00;;;6.50;99.90;;;;;;488135;239;28729;-70
2022/03/15 02:17:37;;;;;;;2.20;2.10;;;6.50;99.90;;;;;;489498;243;27968;-69
2022/03/15 02:19:37;;;;;;;2.20;2.00;;;6.50;99.90;;;;;;489457;243;27802;-69
2022/03/15 02:21:39;;;;;;;2.20;2.00;;;6.60;99.90;;;;;;489535;243;27350;-69
2022/03/15 02:23:40;;;;;;;2.08;1.98;;;6.70;99.90;;;;;;489495;243;28771;-69
2022/03/15 02:25:41;;;;;;;1.97;1.87;;;6.60;99.90;;;;;;489513;243;27330;-69
2022/03/15 02:27:42;;;;;;;2.00;1.85;;;6.60;99.90;;;;;;489501;243;28251;-69
2022/03/15 02:29:44;;;;;;;2.23;2.07;;;6.60;99.90;;;;;;489463;243;27386;-69
2022/03/15 02:31:45;;;;;;;1.70;1.60;;;6.60;99.90;;;;;;489511;243;27470;-69
2022/03/15 02:33:46;;;;;;;2.10;1.93;;;6.40;99.90;;;;;;489538;243;27817;-69
2022/03/15 02:35:47;;;;;;;2.67;2.00;;;6.10;99.90;;;;;;489491;243;29110;-69
2022/03/15 02:37:49;;;;;;;2.10;2.00;;;6.20;99.90;;;;;;489508;243;29177;-69
2022/03/15 02:39:50;;;;;;;2.10;1.92;;;6.20;99.90;;;;;;489496;243;27817;-69
2022/03/15 02:41:51;;;;;;;1.98;1.70;;;6.30;99.90;;;;;;489496;243;27466;-70
2022/03/15 02:45:58;;;;;;;1.42;1.42;;;6.40;99.90;;;;;;469822;251;27456;-69
2022/03/15 02:47:59;;;;;;;1.92;1.60;;;6.40;99.90;;;;;;474617;250;27353;-69
2022/03/15 02:50:01;;;;;;;2.03;1.67;;;6.40;99.90;;;;;;474588;250;27944;-70
2022/03/15 02:52:02;;;;;;;1.70;1.60;;;6.40;99.90;;;;;;474540;250;27419;-69
2022/03/15 02:54:08;;;;;;;1.55;1.50;;;6.30;99.90;;;;;;474590;250;27458;-69
2022/03/15 02:56:04;;;;;;;1.60;1.50;;;6.30;99.90;;;;;;474213;250;27340;-69
2022/03/15 02:58:06;;;;;;;1.75;1.65;;;6.20;99.90;;;;;;474598;250;27365;-69
2022/03/15 03:00:07;;;;;;;1.73;1.62;;;6.20;99.90;;;;;;474580;250;27370;-69
2022/03/15 03:02:08;;;;;;;2.90;1.63;;;6.30;99.90;;;;;;474606;250;27802;-69
2022/03/15 03:04:10;;;;;;;1.70;1.60;;;6.40;99.90;;;;;;474612;250;28168;-69
2022/03/15 03:06:11;;;;;;;1.95;1.70;;;6.30;99.90;;;;;;474595;250;27410;-69
2022/03/15 03:08:12;;;;;;;1.80;1.70;;;6.40;99.90;;;;;;474556;250;27345;-69
2022/03/15 03:10:16;;;;;;;1.80;1.70;;;6.40;99.90;;;;;;474498;250;27936;-69
2022/03/15 03:12:15;;;;;;;2.13;1.77;;;6.40;99.90;;;;;;474375;250;27422;-69
2022/03/15 03:14:18;;;;;;;2.05;1.60;;;6.40;99.90;;;;;;474577;250;28727;-69
2022/03/15 03:16:18;;;;;;;1.77;1.67;;;6.30;99.90;;;;;;474466;250;27330;-70
2022/03/15 03:18:18;;;;;;;2.10;2.00;;;6.30;99.90;;;;;;474577;250;28192;-69
2022/03/15 03:20:21;;;;;;;1.60;1.50;;;6.30;99.90;;;;;;474560;247;28391;-70
2022/03/15 03:22:21;;;;;;;1.70;1.60;;;6.40;99.90;;;;;;474505;250;27897;-69
2022/03/15 03:24:23;;;;;;;3.07;2.17;;;6.40;99.90;;;;;;474628;250;27434;-69
2022/03/15 03:26:24;;;;;;;2.35;2.00;;;6.50;99.90;;;;;;474535;250;28645;-69
2022/03/15 03:28:25;;;;;;;2.40;1.98;;;6.60;99.90;;;;;;474556;250;27361;-69
2022/03/15 03:30:28;;;;;;;1.87;1.77;;;6.50;99.90;;;;;;474605;248;27381;-69
2022/03/15 03:32:27;;;;;;;1.90;1.80;;;6.50;99.90;;;;;;474498;247;27406;-69
2022/03/15 03:34:28;;;;;;;1.80;1.70;;;6.60;99.90;;;;;;474649;250;27936;-69
2022/03/15 03:36:31;;;;;;;1.85;1.75;;;6.60;99.90;;;;;;474582;250;29182;-69
2022/03/15 03:38:31;;;;;;;1.83;1.73;;;6.60;99.90;;;;;;474519;250;27785;-69
2022/03/15 03:40:32;;;;;;;1.58;1.50;;;6.50;99.90;;;;;;474588;250;28254;-69
2022/03/15 03:42:33;;;;;;;1.85;1.65;;;6.40;99.90;;;;;;474613;250;27420;-69
2022/03/15 03:44:36;;;;;;;2.45;1.70;;;6.30;99.90;;;;;;474597;250;27464;-69
2022/03/15 03:46:36;;;;;;;1.80;1.70;;;6.30;99.90;;;;;;474512;250;27437;-68
2022/03/15 03:48:37;;;;;;;1.67;1.50;;;6.30;99.90;;;;;;474619;250;27441;-71
2022/03/15 03:50:40;;;;;;;1.70;1.60;;;6.20;99.90;;;;;;474603;250;29188;-69
2022/03/15 03:52:40;;;;;;;1.60;1.50;;;6.30;99.90;;;;;;474568;250;28284;-68
2022/03/15 03:54:41;;;;;;;2.00;1.90;;;6.30;99.90;;;;;;474612;250;29127;-71
2022/03/15 03:56:42;;;;;;;1.87;1.77;;;6.40;99.90;;;;;;474545;250;28428;-68
2022/03/15 03:58:44;;;;;;;2.28;1.80;;;6.50;99.90;;;;;;474636;250;29162;-70
2022/03/15 04:00:45;;;;;;;2.00;1.90;;;6.50;99.90;;;;;;474575;250;27362;-68
2022/03/15 04:02:46;;;;;;;2.00;1.90;;;6.40;99.90;;;;;;474619;250;27827;-68
2022/03/15 04:04:47;;;;;;;2.45;1.83;;;6.20;99.90;;;;;;474620;250;27461;-70
2022/03/15 04:06:48;;;;;;;1.80;1.70;;;6.10;99.90;;;;;;474556;250;27422;-70
2022/03/15 04:08:54;;;;;;;2.25;1.85;;;6.00;99.90;;;;;;474622;250;27342;-70
2022/03/15 04:10:51;;;;;;;3.42;2.10;;;5.90;99.90;;;;;;474280;250;27933;-70
2022/03/15 04:12:54;;;;;;;2.10;2.00;;;5.90;99.90;;;;;;474605;250;27895;-70
2022/03/15 04:14:54;;;;;;;3.37;2.20;;;5.90;99.90;;;;;;474527;250;27463;-71
2022/03/15 04:16:55;;;;;;;2.40;2.25;;;5.90;99.90;;;;;;474499;250;27493;-68
2022/03/15 04:18:56;;;;;;;3.25;2.62;;;6.00;99.90;;;;;;474578;246;27505;-70
2022/03/15 04:20:57;;;;;;;2.42;2.20;;;6.10;99.90;;;;;;474566;247;27456;-70
2022/03/15 04:22:58;;;;;;;3.17;2.80;;;6.20;99.90;;;;;;474626;250;27330;-70
2022/03/15 04:25:00;;;;;;;2.72;2.20;;;6.20;99.90;;;;;;478618;243;29303;-68
2022/03/15 04:27:01;;;;;;;2.45;2.20;;;6.10;99.90;;;;;;481794;247;28005;-68
2022/03/15 04:29:02;;;;;;;3.37;2.70;;;6.00;99.90;;;;;;487523;242;27535;-68
2022/03/15 04:31:04;;;;;;;3.92;2.53;;;6.00;99.90;;;;;;487517;243;27587;-69
2022/03/15 04:33:05;;;;;;;2.60;2.03;;;6.00;99.90;;;;;;487532;244;27493;-68
2022/03/15 04:35:06;;;;;;;5.15;2.33;;;5.90;99.90;;;;;;478370;236;27498;-70
2022/03/15 04:37:07;;;;;;;2.33;2.12;;;5.90;99.90;;;;;;472067;251;27428;-70
2022/03/15 04:39:09;;;;;;;2.08;1.98;;;5.90;99.90;;;;;;473009;251;27410;-70
2022/03/15 04:41:11;;;;;;;2.80;2.60;;;5.90;99.90;;;;;;472955;251;27460;-69
2022/03/15 04:43:12;;;;;;;2.55;2.35;;;5.90;99.90;;;;;;472948;251;27940;-68
2022/03/15 04:45:12;;;;;;;2.40;2.20;;;5.80;99.90;;;;;;467208;241;27987;-70
2022/03/15 04:47:14;;;;;;;2.12;1.92;;;5.70;99.90;;;;;;463377;255;28564;-70
2022/03/15 04:49:15;;;;;;;3.12;2.40;;;5.70;99.90;;;;;;463411;255;27344;-70
2022/03/15 04:51:16;;;;;;;2.42;2.00;;;5.70;99.90;;;;;;463419;255;27390;-67
2022/03/15 04:53:18;;;;;;;2.20;2.00;;;5.70;99.90;;;;;;463376;256;27364;-67
2022/03/15 04:55:19;;;;;;;2.10;1.90;;;5.70;99.90;;;;;;463384;256;27474;-67
2022/03/15 04:57:20;;;;;;;3.00;2.30;;;5.70;99.90;;;;;;463415;255;27807;-68
2022/03/15 04:59:21;;;;;;;2.50;2.30;;;5.70;99.90;;;;;;463451;254;27830;-67
2022/03/15 05:01:22;;;;;;;2.05;1.87;;;5.70;99.90;;;;;;463409;255;27974;-68
2022/03/15 05:03:24;;;;;;;2.20;2.00;;;5.70;99.90;;;;;;463390;255;27450;-68
2022/03/15 05:05:25;;;;;;;2.25;2.05;;;5.80;99.90;;;;;;463438;255;27371;-68
2022/03/15 05:07:26;;;;;;;2.92;2.20;;;5.80;99.90;;;;;;463371;255;27505;-69
2022/03/15 05:09:27;;;;;;;2.65;1.90;;;5.70;99.90;;;;;;463450;255;27451;-68
2022/03/15 05:11:29;;;;;;;2.42;2.10;;;5.60;99.90;;;;;;463362;255;27399;-69
2022/03/15 05:13:30;;;;;;;2.10;2.00;;;5.60;99.90;;;;;;463427;255;27794;-68
2022/03/15 05:15:31;;;;;;;2.35;2.10;;;5.60;99.90;;;;;;463591;255;27443;-70
2022/03/15 05:17:33;;;;;;;3.17;2.03;;;5.60;99.90;;;;;;463491;255;27415;-71
2022/03/15 05:19:34;;;;;;;2.20;2.10;;;5.60;99.90;;;;;;463489;255;27358;-68
2022/03/15 05:21:35;;;;;;;2.47;2.28;;;5.60;99.90;;;;;;463441;255;27462;-68
2022/03/15 05:23:36;;;;;;;2.00;1.80;;;5.70;99.90;;;;;;463418;255;27359;-69
2022/03/15 05:25:38;;;;;;;2.33;2.12;;;5.70;99.90;;;;;;463420;255;27488;-68
2022/03/15 05:27:39;;;;;;;2.60;1.80;;;5.80;99.90;;;;;;463422;255;28277;-68
2022/03/15 05:29:40;;;;;;;1.90;1.80;;;5.80;99.90;;;;;;463440;255;27814;-68
2022/03/15 05:31:41;;;;;;;2.28;2.08;;;5.80;99.90;;;;;;464714;253;27440;-68
2022/03/15 05:33:43;;;;;;;2.25;2.05;;;5.80;99.90;;;;;;468064;253;27548;-68
2022/03/15 05:35:44;;;;;;;1.92;1.83;;;5.80;99.90;;;;;;468110;253;27564;-68
2022/03/15 05:37:45;;;;;;;2.95;2.25;;;5.80;99.90;;;;;;468158;253;27517;-68
2022/03/15 05:39:46;;;;;;;2.30;2.10;;;5.80;99.90;;;;;;468210;253;27436;-71
2022/03/15 05:41:48;;;;;;;3.55;2.25;;;5.80;99.90;;;;;;468119;253;28042;-69
2022/03/15 05:43:49;;;;;;;2.10;1.90;;;5.70;99.90;;;;;;468106;253;27873;-68
2022/03/15 05:45:53;;;;;;;2.60;2.22;;;5.60;99.90;;;;;;472506;250;27543;-69
2022/03/15 05:47:54;;;;;;;3.25;2.65;;;5.60;99.90;;;;;;475777;249;27443;-68
2022/03/15 05:49:55;;;;;;;2.30;2.10;;;5.60;99.90;;;;;;475867;250;27464;-70
2022/03/15 05:51:57;;;;;;;3.05;2.00;;;5.60;99.90;;;;;;475835;250;27527;-69
2022/03/15 05:53:58;;;;;;;2.60;2.30;;;5.50;99.90;;;;;;475824;250;27480;-69
2022/03/15 05:55:59;;;;;;;4.45;1.90;;;5.50;99.90;;;;;;475794;250;27501;-68
2022/03/15 05:58:00;;;;;;;2.00;1.90;;;5.50;99.90;;;;;;475718;250;27971;-69
2022/03/15 06:00:02;;;;;;;2.00;1.90;;;5.50;99.90;;;;;;475706;250;27912;-69
2022/03/15 06:02:03;;;;;;;2.78;1.90;;;5.50;99.90;;;;;;467516;250;27426;-68
2022/03/15 06:04:05;;;;;;;2.10;1.67;;;5.60;99.90;;;;;;466972;250;27524;-69
2022/03/15 06:06:06;;;;;;;1.95;1.85;;;5.60;99.90;;;;;;466913;255;27441;-68
2022/03/15 06:08:08;;;;;;;2.20;2.00;;;5.40;99.90;;;;;;467143;250;27467;-69
2022/03/15 06:10:08;;;;;;;3.15;2.05;;;5.30;99.90;;;;;;467509;250;27597;-70
2022/03/15 06:12:09;;;;;;;3.80;2.15;;;5.20;99.90;;;;;;467580;254;27983;-69
2022/03/15 06:14:12;;;;;;;2.40;2.20;;;5.20;99.90;;;;;;467538;254;28186;-69
2022/03/15 06:16:12;;;;;;;2.55;2.08;;;5.20;99.90;;;;;;467504;254;27705;-69
2022/03/15 06:18:13;;;;;;;3.83;2.50;;;5.30;99.90;;;;;;467588;254;27590;-69
2022/03/15 06:20:14;;;;;;;2.30;2.10;;;5.30;99.90;;;;;;467541;251;27593;-69
2022/03/15 06:22:16;;;;;;;2.17;2.00;;;5.40;99.90;;;;;;467570;254;27554;-71
2022/03/15 06:24:17;;;;;;;5.82;2.40;;;5.50;99.90;;;;;;467517;254;27672;-70
2022/03/15 06:26:20;;;;;;;3.50;2.78;;;5.60;99.90;;;;;;467542;254;29010;-70
2022/03/15 06:28:19;;;;;;;2.67;2.47;;;5.70;99.90;;;;;;467479;254;27993;-72
2022/03/15 06:30:21;;;;;;;2.30;2.10;;;5.80;99.90;;;;;;467617;254;27683;-71
2022/03/15 06:32:22;;;;;;;2.40;2.10;;;5.90;99.90;;;;;;467611;254;28072;-72
2022/03/15 06:34:24;;;;;;;2.25;2.10;;;6.00;99.90;;;;;;467455;254;28057;-72
2022/03/15 06:36:24;;;;;;;3.25;2.37;;;6.00;99.90;;;;;;459058;259;27594;-72
2022/03/15 06:38:26;;;;;;;4.20;2.37;;;6.00;99.90;;;;;;466958;254;27432;-72
2022/03/15 06:40:29;;;;;;;2.20;2.10;;;6.10;99.90;;;;;;466950;254;27498;-72
2022/03/15 06:42:28;;;;;;;2.50;2.00;;;6.10;99.90;;;;;;466819;254;27909;-72
2022/03/15 06:44:29;;;;;;;2.50;2.10;;;6.20;99.90;;;;;;466978;254;29469;-71
2022/03/15 06:46:31;;;;;;;1.98;1.87;;;6.20;99.90;;;;;;467050;254;29348;-74
2022/03/15 06:48:32;;;;;;;2.20;2.00;;;6.20;99.90;;;;;;467012;254;27556;-72
2022/03/15 06:50:33;;;;;;;1.92;1.80;;;6.30;99.90;;;;;;467023;254;28966;-73
2022/03/15 06:52:34;;;;;;;2.00;1.90;;;6.30;99.90;;;;;;467062;254;27436;-71
2022/03/15 06:54:36;;;;;;;3.70;2.10;;;6.30;99.90;;;;;;467011;254;28854;-72
2022/03/15 06:56:39;;;;;;;2.08;1.98;;;6.30;99.90;;;;;;467045;254;27603;-75
2022/03/15 06:58:38;;;;;;;2.00;1.90;;;6.30;99.90;;;;;;466731;254;27574;-71
2022/03/15 07:00:40;;;;;;;1.95;1.75;;;6.30;99.90;;;;;;467028;254;27958;-72
2022/03/15 07:02:41;;;;;;;2.20;2.00;;;6.40;99.90;;;;;;466970;254;27449;-71
2022/03/15 07:04:42;;;;;;;3.97;2.10;;;6.40;99.90;;;;;;467060;254;27491;-71
2022/03/15 07:06:43;;;;;;;2.33;2.10;;;6.20;99.90;;;;;;467042;254;27904;-73
2022/03/15 07:08:45;;;;;;;2.03;1.92;;;6.20;99.90;;;;;;467030;254;28827;-73
2022/03/15 07:10:46;;;;;;;2.40;2.20;;;6.20;99.90;;;;;;467051;254;27476;-71
2022/03/15 07:12:47;;;;;;;2.50;2.30;;;6.20;99.90;;;;;;466995;254;28906;-69
2022/03/15 07:14:49;;;;;;;2.20;2.10;;;6.30;99.90;;;;;;467051;254;27448;-73
2022/03/15 07:16:50;;;;;;;2.47;2.10;;;6.30;99.90;;;;;;467021;254;28382;-72
2022/03/15 07:18:51;;;;;;;2.15;2.05;;;6.40;99.90;;;;;;466987;254;29428;-73
2022/03/15 07:20:52;;;;;;;3.03;2.70;;;6.60;99.90;;;;;;466973;254;27581;-73
2022/03/15 07:22:53;;;;;;;2.40;2.20;;;6.60;99.90;;;;;;466961;254;28124;-72
2022/03/15 07:26:41;;;;;;;2.83;2.40;;;;;;;;;;510870;233;36284;-72
2022/03/15 07:28:42;;;;;;;3.40;2.10;;;6.70;99.90;;;;;;503194;236;27660;-72
2022/03/15 07:30:43;;;;;;;3.47;2.15;;;6.60;99.90;;;;;;503262;236;27784;-72
2022/03/15 07:32:45;;;;;;;2.47;2.27;;;6.60;99.90;;;;;;503231;236;27985;-73
2022/03/15 07:34:47;;;;;;;2.00;1.90;;;6.70;99.90;;;;;;503263;236;28366;-76
2022/03/15 07:36:47;;;;;;;2.30;2.17;;;6.80;99.90;;;;;;503213;236;28381;-72
2022/03/15 07:38:48;;;;;;;2.20;2.10;;;6.90;99.90;;;;;;503183;236;28739;-74
2022/03/15 07:40:52;;;;;;;2.33;2.13;;;7.10;99.90;;;;;;503218;236;27436;-72
2022/03/15 07:42:52;;;;;;;2.27;2.17;;;7.00;99.90;;;;;;503115;236;27957;-72
2022/03/15 07:44:52;;;;;;;2.27;2.07;;;7.00;99.90;;;;;;503221;236;28101;-76
2022/03/15 07:46:53;;;;;;;2.23;2.03;;;7.00;99.90;;;;;;503222;236;27892;-72
2022/03/15 07:48:55;;;;;;;4.93;2.53;;;7.00;99.90;;;;;;503202;236;27948;-73
2022/03/15 07:50:56;;;;;;;2.60;2.10;;;7.10;99.90;;;;;;503213;236;27784;-72
2022/03/15 07:52:58;;;;;;;4.07;2.47;;;7.20;99.90;;;;;;503203;236;27945;-72
2022/03/15 07:54:58;;;;;;;2.97;2.10;;;7.20;99.90;;;;;;503230;236;27960;-74
2022/03/15 07:57:00;;;;;;;2.20;2.10;;;7.30;99.90;;;;;;503232;236;27558;-72
2022/03/15 07:59:01;;;;;;;2.50;2.30;;;7.40;99.90;;;;;;503190;236;28014;-72
2022/03/15 08:01:02;;;;;;;2.23;2.03;;;7.40;99.90;;;;;;503191;236;28130;-73
2022/03/15 08:03:06;;;;;;;2.07;1.97;;;;;;;;;;503157;236;28247;-72
2022/03/15 08:05:07;;;;;;;1.97;1.73;;;7.40;99.90;;;;;;503213;236;26696;-72
2022/03/15 08:07:08;;;;;;;2.83;2.37;;;7.40;99.90;;;;;;503223;236;27953;-72
2022/03/15 08:09:09;;;;;;;2.60;2.10;;;7.40;99.90;;;;;;503156;236;27958;-72
2022/03/15 08:11:11;;;;;;;2.10;1.90;;;7.40;99.90;;;;;;503168;236;27698;-72
2022/03/15 08:13:12;;;;;;;2.00;1.90;;;7.50;99.90;;;;;;503198;236;28433;-72
2022/03/15 08:15:13;;;;;;;2.00;1.90;;;7.50;99.90;;;;;;503225;236;28370;-73
2022/03/15 08:17:15;;;;;;;2.27;2.10;;;7.60;99.90;;;;;;503235;236;28463;-72
2022/03/15 08:19:16;;;;;;;2.30;2.00;;;7.80;99.90;;;;;;503182;236;28409;-73
2022/03/15 08:21:17;;;;;;;2.13;2.03;;;7.80;99.90;;;;;;503182;236;28456;-73
2022/03/15 08:23:20;;;;;;;2.17;1.97;;;7.80;99.90;;;;;;503221;236;28051;-73
2022/03/15 08:25:20;;;;;;;1.77;1.67;;;7.90;99.90;;;;;;503155;236;28171;-73
2022/03/15 08:27:21;;;;;;;1.80;1.70;;;8.00;99.90;;;;;;503238;236;27752;-72
2022/03/15 08:29:22;;;;;;;2.07;1.97;;;8.00;99.90;;;;;;503201;236;27941;-72
2022/03/15 08:31:23;;;;;;;2.07;1.87;;;8.00;99.90;;;;;;503229;236;28023;-71
2022/03/15 08:33:24;;;;;;;1.90;1.80;;;8.00;99.90;;;;;;503214;236;27427;-72
2022/03/15 08:35:26;;;;;;;1.90;1.80;;;8.00;99.90;;;;;;503240;236;28020;-73
2022/03/15 08:37:27;;;;;;;2.20;2.00;;;8.10;99.90;;;;;;503186;236;27923;-72
2022/03/15 08:39:28;;;;;;;2.10;2.00;;;8.00;99.90;;;;;;503092;236;27932;-72
2022/03/15 08:41:29;;;;;;;1.80;1.70;;;8.10;99.90;;;;;;503123;236;27954;-73
2022/03/15 08:43:31;;;;;;;2.57;2.00;;;8.10;99.90;;;;;;503110;236;28019;-71
2022/03/15 08:45:32;;;;;;;2.40;2.10;;;8.00;99.90;;;;;;503090;236;28011;-72
2022/03/15 08:47:33;;;;;;;2.47;2.10;;;8.10;99.90;;;;;;503107;236;27805;-72
2022/03/15 08:49:34;;;;;;;2.60;1.70;;;8.10;99.90;;;;;;503090;236;27975;-72
2022/03/15 08:51:36;;;;;;;2.70;2.20;;;8.10;99.90;;;;;;503124;236;28248;-71
2022/03/15 08:53:37;;;;;;;3.10;1.80;;;8.10;99.90;;;;;;503170;236;28255;-71
2022/03/15 08:55:38;;;;;;;3.00;2.10;;;8.00;99.90;;;;;;503184;236;28125;-71
2022/03/15 08:57:39;;;;;;;2.97;1.80;;;8.00;99.90;;;;;;503161;236;28350;-71
2022/03/15 08:59:41;;;;;;;1.80;1.70;;;8.00;99.90;;;;;;503160;236;28436;-71
2022/03/15 09:01:48;;;;;;;1.70;1.60;;;8.00;99.90;;;;;;503240;236;28396;-70
2022/03/15 09:03:49;;;;;;;1.90;1.70;;;8.00;99.90;;;;;;503150;236;27653;-71
2022/03/15 09:05:51;;;;;;;4.70;1.57;;;8.00;99.90;;;;;;503102;236;27735;-70
2022/03/15 09:07:53;;;;;;;1.90;1.67;;;8.00;99.90;;;;;;492272;236;28054;-70
2022/03/15 09:09:53;;;;;;;3.50;2.20;;;8.00;99.90;;;;;;491882;242;28442;-70
2022/03/15 09:11:54;;;;;;;2.30;1.70;;;8.00;99.90;;;;;;491946;242;28818;-72
2022/03/15 09:13:56;;;;;;;1.77;1.60;;;8.00;99.90;;;;;;491938;241;27652;-71
2022/03/15 09:15:58;;;;;;;1.60;1.50;;;8.00;99.90;;;;;;491974;242;27827;-72
2022/03/15 09:17:59;;;;;;;1.83;1.73;;;8.00;99.90;;;;;;491823;242;27789;-70
2022/03/15 09:20:00;;;;;;;2.70;1.90;;;8.00;99.90;;;;;;491851;242;27870;-71
2022/03/15 09:22:03;;;;;;;3.43;2.03;;;8.00;99.90;;;;;;491944;242;27711;-71
2022/03/15 09:24:03;;;;;;;3.17;1.83;;;8.00;99.90;;;;;;491898;242;28230;-71
2022/03/15 09:26:04;;;;;;;2.60;2.10;;;8.00;99.90;;;;;;491875;242;28571;-71
2022/03/15 09:28:05;;;;;;;1.70;1.60;;;8.00;99.90;;;;;;491889;242;28473;-72
2022/03/15 09:30:07;;;;;;;1.93;1.60;;;8.00;99.90;;;;;;491827;242;28408;-71
2022/03/15 09:32:10;;;;;;;2.30;1.83;;;8.00;99.90;;;;;;491857;242;28325;-71
2022/03/15 09:34:09;;;;;;;1.90;1.80;;;8.20;99.90;;;;;;491785;242;28350;-73
2022/03/15 09:36:10;;;;;;;2.10;1.90;;;8.20;99.90;;;;;;491868;242;27360;-70
2022/03/15 09:38:12;;;;;;;2.20;2.00;;;8.30;99.90;;;;;;491816;242;27958;-71
2022/03/15 09:40:13;;;;;;;2.20;2.00;;;8.20;99.90;;;;;;491481;242;28008;-71
2022/03/15 09:42:14;;;;;;;3.13;2.13;;;8.20;99.90;;;;;;491688;242;27973;-71
2022/03/15 09:44:15;;;;;;;2.53;2.33;;;8.30;99.90;;;;;;491705;242;27946;-72
2022/03/15 09:46:17;;;;;;;2.80;2.10;;;8.50;99.90;;;;;;491872;242;27936;-71
2022/03/15 09:48:18;;;;;;;2.20;2.10;;;8.30;99.90;;;;;;491872;242;27970;-71
2022/03/15 09:50:19;;;;;;;2.20;2.10;;;8.20;99.90;;;;;;491842;242;28096;-71
2022/03/15 09:52:20;;;;;;;3.80;1.90;;;8.20;99.90;;;;;;491912;242;27742;-72
2022/03/15 09:54:22;;;;;;;2.30;2.03;;;8.10;99.90;;;;;;491908;242;28113;-72
2022/03/15 09:56:23;;;;;;;2.10;2.00;;;8.10;99.90;;;;;;492405;235;27721;-71
2022/03/15 09:58:24;;;;;;;1.70;1.60;;;8.10;99.90;;;;;;503443;235;27903;-70
2022/03/15 10:00:25;;;;;;;5.80;2.33;;;8.10;99.90;;;;;;502696;236;27897;-71
2022/03/15 10:02:26;;;;;;;2.67;2.40;;;8.00;99.90;;;;;;503057;236;27757;-71
2022/03/15 10:04:28;;;;;;;2.63;1.90;;;7.90;99.90;;;;;;503046;236;28439;-73
2022/03/15 10:06:29;;;;;;;1.93;1.83;;;8.00;99.90;;;;;;502952;236;28418;-71
2022/03/15 10:08:30;;;;;;;2.80;2.00;;;8.00;99.90;;;;;;503049;236;28010;-71
2022/03/15 10:10:31;;;;;;;2.10;2.00;;;8.00;99.90;;;;;;502997;236;27840;-71
2022/03/15 10:12:33;;;;;;;2.90;2.30;;;8.00;99.90;;;;;;502964;236;27517;-71
2022/03/15 10:14:35;;;;;;;2.57;2.20;;;7.90;99.90;;;;;;503085;236;27637;-72
2022/03/15 10:16:35;;;;;;;2.03;1.90;;;8.00;99.90;;;;;;503085;236;27880;-71
2022/03/15 10:18:36;;;;;;;1.93;1.80;;;8.00;99.90;;;;;;503062;236;28002;-71
2022/03/15 10:20:38;;;;;;;3.43;2.17;;;8.10;99.90;;;;;;503059;236;27822;-70
2022/03/15 10:22:39;;;;;;;2.60;1.90;;;8.10;99.90;;;;;;502989;236;28265;-71
2022/03/15 10:24:40;;;;;;;2.27;2.07;;;8.10;99.90;;;;;;503002;236;27815;-72
2022/03/15 10:26:41;;;;;;;2.00;1.80;;;8.20;99.90;;;;;;503027;236;27524;-71
2022/03/15 10:28:47;;;;;;;1.97;1.87;;;8.30;99.90;;;;;;502993;236;28020;-71
2022/03/15 10:30:44;;;;;;;2.00;1.90;;;8.20;99.90;;;;;;502743;236;27976;-70
2022/03/15 10:32:45;;;;;;;2.73;2.00;;;8.20;99.90;;;;;;503143;236;27762;-71
2022/03/15 10:34:46;;;;;;;3.53;2.13;;;8.20;99.90;;;;;;494437;236;28143;-74
2022/03/15 10:36:48;;;;;;;2.30;2.10;;;8.20;99.90;;;;;;486248;244;27976;-71
2022/03/15 10:38:49;;;;;;;1.80;1.70;;;8.30;99.90;;;;;;486248;244;28581;-71
2022/03/15 10:40:55;;;;;;;1.77;1.67;;;8.30;99.90;;;;;;486299;244;28967;-71
2022/03/15 10:42:52;;;;;;;1.83;1.70;;;8.40;99.90;;;;;;485761;244;28504;-71